sensor_id;sensor_type;location;lat;lon;timestamp;temperature;humidity
27858;DHT22;16852;51.446;6.528;2022-10-26T00:01:11;13.80;99.90
27858;DHT22;16852;51.446;6.528;2022-10-26T00:03:13;13.80;99.90
27858;DHT22;16852;51.446;6.528;2022-10-26T00:05:14;13.70;99.90
27858;DHT22;16852;51.446;6.528;2022-10-26T00:07:14;13.70;99.90
27858;DHT22;16852;51.446;6.528;2022-10-26T00:09:15;13.70;99.90
27858;DHT22;16852;51.446;6.528;2022-10-26T00:11:16;13.70;99.90
27858;DHT22;16852;51.446;6.528;2022-10-26T00:13:17;13.70;99.90
27858;DHT22;16852;51.446;6.528;2022-10-26T00:15:19;13.70;99.90
27858;DHT22;16852;51.446;6.528;2022-10-26T00:17:19;13.60;99.90
27858;DHT22;16852;51.446;6.528;2022-10-26T00:19:20;13.60;99.90
27858;DHT22;16852;51.446;6.528;2022-10-26T00:21:20;13.60;99.90
27858;DHT22;16852;51.446;6.528;2022-10-26T00:23:21;13.70;99.90
27858;DHT22;16852;51.446;6.528;2022-10-26T00:25:22;13.70;99.90
27858;DHT22;16852;51.446;6.528;2022-10-26T00:27:22;13.70;99.90
27858;DHT22;16852;51.446;6.528;2022-10-26T00:29:23;13.70;99.90
27858;DHT22;16852;51.446;6.528;2022-10-26T00:31:24;13.70;99.90
27858;DHT22;16852;51.446;6.528;2022-10-26T00:33:24;13.70;99.90
27858;DHT22;16852;51.446;6.528;2022-10-26T00:35:25;13.70;99.90
27858;DHT22;16852;51.446;6.528;2022-10-26T00:37:25;13.80;99.90
27858;DHT22;16852;51.446;6.528;2022-10-26T00:39:26;13.70;99.90
27858;DHT22;16852;51.446;6.528;2022-10-26T00:41:31;13.80;99.90
27858;DHT22;16852;51.446;6.528;2022-10-26T00:43:37;13.80;99.90
27858;DHT22;16852;51.446;6.528;2022-10-26T00:45:37;13.80;99.90
27858;DHT22;16852;51.446;6.528;2022-10-26T00:48:13;13.80;99.90
27858;DHT22;16852;51.446;6.528;2022-10-26T00:50:39;13.80;99.90
27858;DHT22;16852;51.446;6.528;2022-10-26T00:52:40;13.80;99.90
27858;DHT22;16852;51.446;6.528;2022-10-26T00:54:42;13.70;99.90
27858;DHT22;16852;51.446;6.528;2022-10-26T00:56:44;13.70;99.90
27858;DHT22;16852;51.446;6.528;2022-10-26T00:58:46;13.70;99.90
27858;DHT22;16852;51.446;6.528;2022-10-26T01:00:47;13.70;99.90
27858;DHT22;16852;51.446;6.528;2022-10-26T01:02:49;13.70;99.90
27858;DHT22;16852;51.446;6.528;2022-10-26T01:04:52;13.80;99.90
27858;DHT22;16852;51.446;6.528;2022-10-26T01:06:54;13.80;99.90
27858;DHT22;16852;51.446;6.528;2022-10-26T01:08:55;13.80;99.90
27858;DHT22;16852;51.446;6.528;2022-10-26T01:10:57;13.70;99.90
27858;DHT22;16852;51.446;6.528;2022-10-26T01:12:58;13.70;99.90
27858;DHT22;16852;51.446;6.528;2022-10-26T01:14:59;13.80;99.90
27858;DHT22;16852;51.446;6.528;2022-10-26T01:22:22;13.80;99.90
27858;DHT22;16852;51.446;6.528;2022-10-26T01:27:22;13.80;99.90
27858;DHT22;16852;51.446;6.528;2022-10-26T01:32:08;13.70;99.90
27858;DHT22;16852;51.446;6.528;2022-10-26T01:34:20;13.70;99.90
27858;DHT22;16852;51.446;6.528;2022-10-26T01:36:29;13.70;99.90
27858;DHT22;16852;51.446;6.528;2022-10-26T01:43:16;13.70;99.90
27858;DHT22;16852;51.446;6.528;2022-10-26T01:45:18;13.70;99.90
27858;DHT22;16852;51.446;6.528;2022-10-26T01:47:19;13.70;99.90
27858;DHT22;16852;51.446;6.528;2022-10-26T01:49:22;13.70;99.90
27858;DHT22;16852;51.446;6.528;2022-10-26T01:51:25;13.70;99.90
27858;DHT22;16852;51.446;6.528;2022-10-26T01:53:27;13.70;99.90
27858;DHT22;16852;51.446;6.528;2022-10-26T01:55:50;13.70;99.90
27858;DHT22;16852;51.446;6.528;2022-10-26T01:57:53;13.70;99.90
27858;DHT22;16852;51.446;6.528;2022-10-26T02:06:28;13.70;99.90
27858;DHT22;16852;51.446;6.528;2022-10-26T02:08:44;13.80;99.90
27858;DHT22;16852;51.446;6.528;2022-10-26T02:11:09;13.80;99.90
27858;DHT22;16852;51.446;6.528;2022-10-26T02:20:08;13.80;99.90
27858;DHT22;16852;51.446;6.528;2022-10-26T02:24:14;13.80;99.90
27858;DHT22;16852;51.446;6.528;2022-10-26T02:26:19;13.80;99.90
27858;DHT22;16852;51.446;6.528;2022-10-26T02:28:34;13.80;99.90
27858;DHT22;16852;51.446;6.528;2022-10-26T02:30:37;13.80;99.90
27858;DHT22;16852;51.446;6.528;2022-10-26T02:32:43;13.80;99.90
27858;DHT22;16852;51.446;6.528;2022-10-26T02:34:46;13.80;99.90
27858;DHT22;16852;51.446;6.528;2022-10-26T02:36:49;13.80;99.90
27858;DHT22;16852;51.446;6.528;2022-10-26T02:38:53;13.90;99.90
27858;DHT22;16852;51.446;6.528;2022-10-26T02:40:55;13.90;99.90
27858;DHT22;16852;51.446;6.528;2022-10-26T02:43:05;13.90;99.90
27858;DHT22;16852;51.446;6.528;2022-10-26T02:45:10;13.90;99.90
27858;DHT22;16852;51.446;6.528;2022-10-26T02:47:12;13.80;99.90
27858;DHT22;16852;51.446;6.528;2022-10-26T02:49:13;13.80;99.90
27858;DHT22;16852;51.446;6.528;2022-10-26T02:51:19;13.80;99.90
27858;DHT22;16852;51.446;6.528;2022-10-26T02:53:48;13.90;99.90
27858;DHT22;16852;51.446;6.528;2022-10-26T02:55:48;13.90;99.90
27858;DHT22;16852;51.446;6.528;2022-10-26T02:58:00;13.90;99.90
27858;DHT22;16852;51.446;6.528;2022-10-26T03:00:02;13.90;99.90
27858;DHT22;16852;51.446;6.528;2022-10-26T03:02:04;13.90;99.90
27858;DHT22;16852;51.446;6.528;2022-10-26T03:04:04;13.90;99.90
27858;DHT22;16852;51.446;6.528;2022-10-26T03:06:05;13.90;99.90
27858;DHT22;16852;51.446;6.528;2022-10-26T03:08:06;13.90;99.90
27858;DHT22;16852;51.446;6.528;2022-10-26T03:10:07;13.90;99.90
27858;DHT22;16852;51.446;6.528;2022-10-26T03:12:07;14.00;99.90
27858;DHT22;16852;51.446;6.528;2022-10-26T03:14:08;14.00;99.90
27858;DHT22;16852;51.446;6.528;2022-10-26T03:16:09;14.00;99.90
27858;DHT22;16852;51.446;6.528;2022-10-26T03:18:09;14.00;99.90
27858;DHT22;16852;51.446;6.528;2022-10-26T03:20:10;14.00;99.90
27858;DHT22;16852;51.446;6.528;2022-10-26T03:22:11;14.00;99.90
27858;DHT22;16852;51.446;6.528;2022-10-26T03:24:11;14.10;99.90
27858;DHT22;16852;51.446;6.528;2022-10-26T03:26:12;14.10;99.90
27858;DHT22;16852;51.446;6.528;2022-10-26T03:28:12;14.10;99.90
27858;DHT22;16852;51.446;6.528;2022-10-26T03:30:13;14.20;99.90
27858;DHT22;16852;51.446;6.528;2022-10-26T03:32:14;14.20;99.90
27858;DHT22;16852;51.446;6.528;2022-10-26T03:34:14;14.20;99.90
27858;DHT22;16852;51.446;6.528;2022-10-26T03:36:15;14.20;99.90
27858;DHT22;16852;51.446;6.528;2022-10-26T03:38:16;14.20;99.90
27858;DHT22;16852;51.446;6.528;2022-10-26T03:40:16;14.20;99.90
27858;DHT22;16852;51.446;6.528;2022-10-26T03:42:17;14.20;99.90
27858;DHT22;16852;51.446;6.528;2022-10-26T03:44:17;14.20;99.90
27858;DHT22;16852;51.446;6.528;2022-10-26T03:46:18;14.20;99.90
27858;DHT22;16852;51.446;6.528;2022-10-26T03:48:18;14.20;99.90
27858;DHT22;16852;51.446;6.528;2022-10-26T03:50:22;14.30;99.90
27858;DHT22;16852;51.446;6.528;2022-10-26T03:52:22;14.20;99.90
27858;DHT22;16852;51.446;6.528;2022-10-26T03:54:24;14.30;99.90
27858;DHT22;16852;51.446;6.528;2022-10-26T03:56:24;14.30;99.90
27858;DHT22;16852;51.446;6.528;2022-10-26T03:58:25;14.30;99.90
27858;DHT22;16852;51.446;6.528;2022-10-26T04:00:26;14.30;99.90
27858;DHT22;16852;51.446;6.528;2022-10-26T04:02:26;14.30;99.90
27858;DHT22;16852;51.446;6.528;2022-10-26T04:04:27;14.30;99.90
27858;DHT22;16852;51.446;6.528;2022-10-26T04:06:27;14.30;99.90
27858;DHT22;16852;51.446;6.528;2022-10-26T04:08:28;14.40;99.90
27858;DHT22;16852;51.446;6.528;2022-10-26T04:10:29;14.30;99.90
27858;DHT22;16852;51.446;6.528;2022-10-26T04:12:30;14.40;99.90
27858;DHT22;16852;51.446;6.528;2022-10-26T04:14:30;14.40;99.90
27858;DHT22;16852;51.446;6.528;2022-10-26T04:16:31;14.40;99.90
27858;DHT22;16852;51.446;6.528;2022-10-26T04:18:31;14.40;99.90
27858;DHT22;16852;51.446;6.528;2022-10-26T04:20:32;14.40;99.90
27858;DHT22;16852;51.446;6.528;2022-10-26T04:22:36;14.40;99.90
27858;DHT22;16852;51.446;6.528;2022-10-26T04:24:36;14.40;99.90
27858;DHT22;16852;51.446;6.528;2022-10-26T04:26:37;14.40;99.90
27858;DHT22;16852;51.446;6.528;2022-10-26T04:28:37;14.40;99.90
27858;DHT22;16852;51.446;6.528;2022-10-26T04:30:38;14.40;99.90
27858;DHT22;16852;51.446;6.528;2022-10-26T04:32:39;14.40;99.90
27858;DHT22;16852;51.446;6.528;2022-10-26T04:34:40;14.40;99.90
27858;DHT22;16852;51.446;6.528;2022-10-26T04:36:40;14.50;99.90
27858;DHT22;16852;51.446;6.528;2022-10-26T04:38:41;14.50;99.90
27858;DHT22;16852;51.446;6.528;2022-10-26T04:40:41;14.50;99.90
27858;DHT22;16852;51.446;6.528;2022-10-26T04:42:43;14.50;99.90
27858;DHT22;16852;51.446;6.528;2022-10-26T04:44:44;14.50;99.90
27858;DHT22;16852;51.446;6.528;2022-10-26T04:46:45;14.50;99.90
27858;DHT22;16852;51.446;6.528;2022-10-26T04:48:47;14.50;99.90
27858;DHT22;16852;51.446;6.528;2022-10-26T04:50:48;14.50;99.90
27858;DHT22;16852;51.446;6.528;2022-10-26T04:52:49;14.50;99.90
27858;DHT22;16852;51.446;6.528;2022-10-26T04:54:50;14.50;99.90
27858;DHT22;16852;51.446;6.528;2022-10-26T04:56:51;14.50;99.90
27858;DHT22;16852;51.446;6.528;2022-10-26T04:58:54;14.60;99.90
27858;DHT22;16852;51.446;6.528;2022-10-26T05:00:55;14.60;99.90
27858;DHT22;16852;51.446;6.528;2022-10-26T05:03:04;14.60;99.90
27858;DHT22;16852;51.446;6.528;2022-10-26T05:05:05;14.60;99.90
27858;DHT22;16852;51.446;6.528;2022-10-26T05:07:06;14.60;99.90
27858;DHT22;16852;51.446;6.528;2022-10-26T05:09:06;14.60;99.90
27858;DHT22;16852;51.446;6.528;2022-10-26T05:11:07;14.60;99.90
27858;DHT22;16852;51.446;6.528;2022-10-26T05:13:08;14.60;99.90
27858;DHT22;16852;51.446;6.528;2022-10-26T05:15:09;14.60;99.90
27858;DHT22;16852;51.446;6.528;2022-10-26T05:17:11;14.70;99.90
27858;DHT22;16852;51.446;6.528;2022-10-26T05:19:11;14.60;99.90
27858;DHT22;16852;51.446;6.528;2022-10-26T05:21:12;14.70;99.90
27858;DHT22;16852;51.446;6.528;2022-10-26T05:23:18;14.70;99.90
27858;DHT22;16852;51.446;6.528;2022-10-26T05:25:19;14.70;99.90
27858;DHT22;16852;51.446;6.528;2022-10-26T05:27:20;14.70;99.90
27858;DHT22;16852;51.446;6.528;2022-10-26T05:29:20;14.70;99.90
27858;DHT22;16852;51.446;6.528;2022-10-26T05:31:21;14.70;99.90
27858;DHT22;16852;51.446;6.528;2022-10-26T05:33:21;14.70;99.90
27858;DHT22;16852;51.446;6.528;2022-10-26T05:35:23;14.70;99.90
27858;DHT22;16852;51.446;6.528;2022-10-26T05:37:27;14.70;99.90
27858;DHT22;16852;51.446;6.528;2022-10-26T05:39:28;14.70;99.90
27858;DHT22;16852;51.446;6.528;2022-10-26T05:41:28;14.70;99.90
27858;DHT22;16852;51.446;6.528;2022-10-26T05:43:29;14.70;99.90
27858;DHT22;16852;51.446;6.528;2022-10-26T05:45:29;14.70;99.90
27858;DHT22;16852;51.446;6.528;2022-10-26T05:47:30;14.70;99.90
27858;DHT22;16852;51.446;6.528;2022-10-26T05:49:31;14.70;99.90
27858;DHT22;16852;51.446;6.528;2022-10-26T05:51:32;14.70;99.90
27858;DHT22;16852;51.446;6.528;2022-10-26T05:53:33;14.70;99.90
27858;DHT22;16852;51.446;6.528;2022-10-26T05:55:34;14.70;99.90
27858;DHT22;16852;51.446;6.528;2022-10-26T05:57:36;14.70;99.90
27858;DHT22;16852;51.446;6.528;2022-10-26T05:59:37;14.70;99.90
27858;DHT22;16852;51.446;6.528;2022-10-26T06:02:11;14.70;99.90
27858;DHT22;16852;51.446;6.528;2022-10-26T06:06:39;14.80;99.90
27858;DHT22;16852;51.446;6.528;2022-10-26T06:08:41;14.80;99.90
27858;DHT22;16852;51.446;6.528;2022-10-26T06:10:42;14.80;99.90
27858;DHT22;16852;51.446;6.528;2022-10-26T06:12:43;14.80;99.90
27858;DHT22;16852;51.446;6.528;2022-10-26T06:14:44;14.80;99.90
27858;DHT22;16852;51.446;6.528;2022-10-26T06:16:54;14.80;99.90
27858;DHT22;16852;51.446;6.528;2022-10-26T06:19:18;14.80;99.90
27858;DHT22;16852;51.446;6.528;2022-10-26T06:23:54;14.80;99.90
27858;DHT22;16852;51.446;6.528;2022-10-26T06:28:33;14.90;99.90
27858;DHT22;16852;51.446;6.528;2022-10-26T06:30:38;14.80;99.90
27858;DHT22;16852;51.446;6.528;2022-10-26T06:32:42;14.90;99.90
27858;DHT22;16852;51.446;6.528;2022-10-26T06:34:45;14.90;99.90
27858;DHT22;16852;51.446;6.528;2022-10-26T06:36:48;14.90;99.90
27858;DHT22;16852;51.446;6.528;2022-10-26T06:39:02;14.90;99.90
27858;DHT22;16852;51.446;6.528;2022-10-26T06:41:04;14.90;99.90
27858;DHT22;16852;51.446;6.528;2022-10-26T06:43:12;14.80;99.90
27858;DHT22;16852;51.446;6.528;2022-10-26T06:45:17;14.90;99.90
27858;DHT22;16852;51.446;6.528;2022-10-26T06:49:40;14.90;99.90
27858;DHT22;16852;51.446;6.528;2022-10-26T06:51:50;14.90;99.90
27858;DHT22;16852;51.446;6.528;2022-10-26T06:54:12;14.90;99.90
27858;DHT22;16852;51.446;6.528;2022-10-26T06:56:15;14.90;99.90
27858;DHT22;16852;51.446;6.528;2022-10-26T06:58:18;14.90;99.90
27858;DHT22;16852;51.446;6.528;2022-10-26T07:00:21;14.90;99.90
27858;DHT22;16852;51.446;6.528;2022-10-26T07:02:22;14.90;99.90
27858;DHT22;16852;51.446;6.528;2022-10-26T07:04:23;14.90;99.90
27858;DHT22;16852;51.446;6.528;2022-10-26T07:06:24;14.90;99.90
27858;DHT22;16852;51.446;6.528;2022-10-26T07:08:24;14.90;99.90
27858;DHT22;16852;51.446;6.528;2022-10-26T07:10:25;15.00;99.90
27858;DHT22;16852;51.446;6.528;2022-10-26T07:12:26;15.00;99.90
27858;DHT22;16852;51.446;6.528;2022-10-26T07:14:26;15.00;99.90
27858;DHT22;16852;51.446;6.528;2022-10-26T07:16:27;15.00;99.90
27858;DHT22;16852;51.446;6.528;2022-10-26T07:18:29;15.00;99.90
27858;DHT22;16852;51.446;6.528;2022-10-26T07:20:30;15.00;99.90
27858;DHT22;16852;51.446;6.528;2022-10-26T07:22:32;15.00;99.90
27858;DHT22;16852;51.446;6.528;2022-10-26T07:24:33;15.00;99.90
27858;DHT22;16852;51.446;6.528;2022-10-26T07:26:33;15.10;99.90
27858;DHT22;16852;51.446;6.528;2022-10-26T07:28:34;15.00;99.90
27858;DHT22;16852;51.446;6.528;2022-10-26T07:30:37;15.10;99.90
27858;DHT22;16852;51.446;6.528;2022-10-26T07:32:38;15.10;99.90
27858;DHT22;16852;51.446;6.528;2022-10-26T07:34:38;15.10;99.90
27858;DHT22;16852;51.446;6.528;2022-10-26T07:36:39;15.10;99.90
27858;DHT22;16852;51.446;6.528;2022-10-26T07:38:39;15.10;99.90
27858;DHT22;16852;51.446;6.528;2022-10-26T07:40:40;15.20;99.90
27858;DHT22;16852;51.446;6.528;2022-10-26T07:42:40;15.20;99.90
27858;DHT22;16852;51.446;6.528;2022-10-26T07:44:41;15.20;99.90
27858;DHT22;16852;51.446;6.528;2022-10-26T07:46:42;15.20;99.90
27858;DHT22;16852;51.446;6.528;2022-10-26T07:48:42;15.20;99.90
27858;DHT22;16852;51.446;6.528;2022-10-26T07:50:43;15.20;99.90
27858;DHT22;16852;51.446;6.528;2022-10-26T07:52:43;15.20;99.90
27858;DHT22;16852;51.446;6.528;2022-10-26T07:54:44;15.30;99.90
27858;DHT22;16852;51.446;6.528;2022-10-26T07:56:48;15.30;99.90
27858;DHT22;16852;51.446;6.528;2022-10-26T07:58:51;15.50;99.90
27858;DHT22;16852;51.446;6.528;2022-10-26T08:00:52;15.60;99.90
27858;DHT22;16852;51.446;6.528;2022-10-26T08:02:53;15.90;99.90
27858;DHT22;16852;51.446;6.528;2022-10-26T08:04:53;16.20;99.90
27858;DHT22;16852;51.446;6.528;2022-10-26T08:06:54;16.50;99.90
27858;DHT22;16852;51.446;6.528;2022-10-26T08:08:55;16.90;99.90
27858;DHT22;16852;51.446;6.528;2022-10-26T08:10:55;17.30;99.90
27858;DHT22;16852;51.446;6.528;2022-10-26T08:12:56;17.60;99.90
27858;DHT22;16852;51.446;6.528;2022-10-26T08:14:56;18.00;99.90
27858;DHT22;16852;51.446;6.528;2022-10-26T08:16:57;18.30;99.90
27858;DHT22;16852;51.446;6.528;2022-10-26T08:18:57;18.70;99.90
27858;DHT22;16852;51.446;6.528;2022-10-26T08:21:03;19.00;99.90
27858;DHT22;16852;51.446;6.528;2022-10-26T08:23:04;19.40;99.90
27858;DHT22;16852;51.446;6.528;2022-10-26T08:25:05;19.60;99.90
27858;DHT22;16852;51.446;6.528;2022-10-26T08:27:06;19.70;99.90
27858;DHT22;16852;51.446;6.528;2022-10-26T08:29:07;19.70;99.90
27858;DHT22;16852;51.446;6.528;2022-10-26T08:31:07;19.70;99.90
27858;DHT22;16852;51.446;6.528;2022-10-26T08:33:09;19.80;99.90
27858;DHT22;16852;51.446;6.528;2022-10-26T08:35:10;19.90;99.90
27858;DHT22;16852;51.446;6.528;2022-10-26T08:37:11;20.00;99.90
27858;DHT22;16852;51.446;6.528;2022-10-26T08:39:11;20.10;99.90
27858;DHT22;16852;51.446;6.528;2022-10-26T08:41:12;20.20;99.90
27858;DHT22;16852;51.446;6.528;2022-10-26T08:43:24;20.10;99.90
27858;DHT22;16852;51.446;6.528;2022-10-26T08:45:32;20.30;99.90
27858;DHT22;16852;51.446;6.528;2022-10-26T08:47:39;20.30;99.90
27858;DHT22;16852;51.446;6.528;2022-10-26T08:51:52;20.40;99.90
27858;DHT22;16852;51.446;6.528;2022-10-26T08:54:00;20.40;99.90
27858;DHT22;16852;51.446;6.528;2022-10-26T08:56:07;20.50;99.90
27858;DHT22;16852;51.446;6.528;2022-10-26T08:58:14;20.60;99.90
27858;DHT22;16852;51.446;6.528;2022-10-26T09:00:23;20.60;99.90
27858;DHT22;16852;51.446;6.528;2022-10-26T09:02:24;20.50;99.90
27858;DHT22;16852;51.446;6.528;2022-10-26T09:04:27;20.40;99.90
27858;DHT22;16852;51.446;6.528;2022-10-26T09:08:52;20.40;99.90
27858;DHT22;16852;51.446;6.528;2022-10-26T09:15:55;20.40;99.90
27858;DHT22;16852;51.446;6.528;2022-10-26T09:18:19;20.40;99.90
27858;DHT22;16852;51.446;6.528;2022-10-26T09:20:42;20.50;99.90
27858;DHT22;16852;51.446;6.528;2022-10-26T09:23:09;20.50;99.90
27858;DHT22;16852;51.446;6.528;2022-10-26T09:25:21;20.50;99.90
27858;DHT22;16852;51.446;6.528;2022-10-26T09:27:57;20.50;99.90
27858;DHT22;16852;51.446;6.528;2022-10-26T09:30:05;20.60;99.90
27858;DHT22;16852;51.446;6.528;2022-10-26T09:32:19;20.60;99.90
27858;DHT22;16852;51.446;6.528;2022-10-26T09:36:25;20.60;99.90
27858;DHT22;16852;51.446;6.528;2022-10-26T09:38:35;20.60;99.90
27858;DHT22;16852;51.446;6.528;2022-10-26T09:40:39;20.70;99.90
27858;DHT22;16852;51.446;6.528;2022-10-26T09:42:56;20.60;99.90
27858;DHT22;16852;51.446;6.528;2022-10-26T09:45:02;20.70;99.90
27858;DHT22;16852;51.446;6.528;2022-10-26T09:47:26;20.70;99.90
27858;DHT22;16852;51.446;6.528;2022-10-26T09:49:55;20.70;99.90
27858;DHT22;16852;51.446;6.528;2022-10-26T09:51:57;20.70;99.90
27858;DHT22;16852;51.446;6.528;2022-10-26T09:53:58;20.60;99.90
27858;DHT22;16852;51.446;6.528;2022-10-26T09:56:05;20.60;99.90
27858;DHT22;16852;51.446;6.528;2022-10-26T09:58:16;20.60;99.90
27858;DHT22;16852;51.446;6.528;2022-10-26T10:00:19;20.60;99.90
27858;DHT22;16852;51.446;6.528;2022-10-26T10:02:40;20.60;99.90
27858;DHT22;16852;51.446;6.528;2022-10-26T10:04:47;20.60;99.90
27858;DHT22;16852;51.446;6.528;2022-10-26T10:06:50;20.60;99.90
27858;DHT22;16852;51.446;6.528;2022-10-26T10:09:11;20.60;99.90
27858;DHT22;16852;51.446;6.528;2022-10-26T10:11:13;20.60;99.90
27858;DHT22;16852;51.446;6.528;2022-10-26T10:13:15;20.60;99.90
27858;DHT22;16852;51.446;6.528;2022-10-26T10:15:23;20.60;99.90
27858;DHT22;16852;51.446;6.528;2022-10-26T10:17:24;20.60;99.90
27858;DHT22;16852;51.446;6.528;2022-10-26T10:19:30;20.70;99.90
27858;DHT22;16852;51.446;6.528;2022-10-26T10:21:39;20.70;99.90
27858;DHT22;16852;51.446;6.528;2022-10-26T10:23:50;20.70;99.90
27858;DHT22;16852;51.446;6.528;2022-10-26T10:26:02;20.70;99.90
27858;DHT22;16852;51.446;6.528;2022-10-26T10:28:19;20.70;99.90
27858;DHT22;16852;51.446;6.528;2022-10-26T10:30:26;20.70;99.90
27858;DHT22;16852;51.446;6.528;2022-10-26T10:32:29;20.80;99.90
27858;DHT22;16852;51.446;6.528;2022-10-26T10:34:32;20.70;99.90
27858;DHT22;16852;51.446;6.528;2022-10-26T10:36:32;20.70;99.90
27858;DHT22;16852;51.446;6.528;2022-10-26T10:38:38;20.70;99.90
27858;DHT22;16852;51.446;6.528;2022-10-26T10:40:52;20.70;99.90
27858;DHT22;16852;51.446;6.528;2022-10-26T10:43:14;20.70;99.90
27858;DHT22;16852;51.446;6.528;2022-10-26T10:45:26;20.70;99.90
27858;DHT22;16852;51.446;6.528;2022-10-26T10:47:29;20.80;99.90
27858;DHT22;16852;51.446;6.528;2022-10-26T10:49:30;20.90;99.90
27858;DHT22;16852;51.446;6.528;2022-10-26T10:51:39;20.90;99.90
27858;DHT22;16852;51.446;6.528;2022-10-26T10:53:55;20.90;99.90
27858;DHT22;16852;51.446;6.528;2022-10-26T10:58:26;20.90;99.90
27858;DHT22;16852;51.446;6.528;2022-10-26T11:00:30;20.90;99.90
27858;DHT22;16852;51.446;6.528;2022-10-26T11:07:05;20.90;99.90
27858;DHT22;16852;51.446;6.528;2022-10-26T11:09:12;20.90;99.90
27858;DHT22;16852;51.446;6.528;2022-10-26T11:15:36;20.90;99.90
27858;DHT22;16852;51.446;6.528;2022-10-26T11:17:51;20.90;99.90
27858;DHT22;16852;51.446;6.528;2022-10-26T11:19:58;20.90;99.90
27858;DHT22;16852;51.446;6.528;2022-10-26T11:22:02;20.80;99.90
27858;DHT22;16852;51.446;6.528;2022-10-26T11:26:51;20.80;99.90
27858;DHT22;16852;51.446;6.528;2022-10-26T11:28:58;20.80;99.90
27858;DHT22;16852;51.446;6.528;2022-10-26T11:31:06;20.80;99.90
27858;DHT22;16852;51.446;6.528;2022-10-26T11:33:24;20.80;99.90
27858;DHT22;16852;51.446;6.528;2022-10-26T11:37:35;21.00;99.90
27858;DHT22;16852;51.446;6.528;2022-10-26T11:39:43;20.90;99.90
27858;DHT22;16852;51.446;6.528;2022-10-26T11:42:02;21.00;99.90
27858;DHT22;16852;51.446;6.528;2022-10-26T11:44:34;21.00;99.90
27858;DHT22;16852;51.446;6.528;2022-10-26T11:46:48;21.00;99.90
27858;DHT22;16852;51.446;6.528;2022-10-26T11:48:55;21.00;99.90
27858;DHT22;16852;51.446;6.528;2022-10-26T11:50:58;21.10;99.90
27858;DHT22;16852;51.446;6.528;2022-10-26T11:53:04;21.10;99.90
27858;DHT22;16852;51.446;6.528;2022-10-26T11:55:10;21.10;99.90
27858;DHT22;16852;51.446;6.528;2022-10-26T11:57:11;21.00;99.90
27858;DHT22;16852;51.446;6.528;2022-10-26T11:59:24;21.00;99.90
27858;DHT22;16852;51.446;6.528;2022-10-26T12:01:27;21.00;99.90
27858;DHT22;16852;51.446;6.528;2022-10-26T12:03:34;21.00;99.90
27858;DHT22;16852;51.446;6.528;2022-10-26T12:05:56;21.00;99.90
27858;DHT22;16852;51.446;6.528;2022-10-26T12:08:02;21.10;99.90
27858;DHT22;16852;51.446;6.528;2022-10-26T12:10:18;21.10;99.90
27858;DHT22;16852;51.446;6.528;2022-10-26T12:13:24;21.10;99.90
27858;DHT22;16852;51.446;6.528;2022-10-26T12:15:08;21.10;99.90
27858;DHT22;16852;51.446;6.528;2022-10-26T12:17:26;21.10;99.90
27858;DHT22;16852;51.446;6.528;2022-10-26T12:19:40;21.10;99.90
27858;DHT22;16852;51.446;6.528;2022-10-26T12:21:42;21.10;99.90
27858;DHT22;16852;51.446;6.528;2022-10-26T12:30:37;21.10;99.90
27858;DHT22;16852;51.446;6.528;2022-10-26T12:34:55;21.00;99.90
27858;DHT22;16852;51.446;6.528;2022-10-26T12:38:57;21.10;99.90
27858;DHT22;16852;51.446;6.528;2022-10-26T12:45:21;21.10;99.90
27858;DHT22;16852;51.446;6.528;2022-10-26T12:52:20;21.10;99.90
27858;DHT22;16852;51.446;6.528;2022-10-26T12:54:40;21.10;99.90
27858;DHT22;16852;51.446;6.528;2022-10-26T12:56:53;21.10;99.90
27858;DHT22;16852;51.446;6.528;2022-10-26T13:01:10;21.10;99.90
27858;DHT22;16852;51.446;6.528;2022-10-26T13:07:37;21.10;99.90
27858;DHT22;16852;51.446;6.528;2022-10-26T13:09:38;21.10;99.90
27858;DHT22;16852;51.446;6.528;2022-10-26T13:11:50;21.10;99.90
27858;DHT22;16852;51.446;6.528;2022-10-26T13:13:54;21.20;99.90
27858;DHT22;16852;51.446;6.528;2022-10-26T13:15:56;21.20;99.90
27858;DHT22;16852;51.446;6.528;2022-10-26T13:18:07;21.20;99.90
27858;DHT22;16852;51.446;6.528;2022-10-26T13:20:15;21.20;99.90
27858;DHT22;16852;51.446;6.528;2022-10-26T13:22:20;21.20;99.90
27858;DHT22;16852;51.446;6.528;2022-10-26T13:24:23;21.20;99.90
27858;DHT22;16852;51.446;6.528;2022-10-26T13:26:27;21.20;99.90
27858;DHT22;16852;51.446;6.528;2022-10-26T13:30:42;21.20;99.90
27858;DHT22;16852;51.446;6.528;2022-10-26T13:32:51;21.30;99.90
27858;DHT22;16852;51.446;6.528;2022-10-26T13:34:53;21.30;99.90
27858;DHT22;16852;51.446;6.528;2022-10-26T13:38:59;21.30;99.90
27858;DHT22;16852;51.446;6.528;2022-10-26T13:41:06;21.30;99.90
27858;DHT22;16852;51.446;6.528;2022-10-26T13:43:15;21.30;99.90
27858;DHT22;16852;51.446;6.528;2022-10-26T13:45:28;21.30;99.90
27858;DHT22;16852;51.446;6.528;2022-10-26T13:47:31;21.30;99.90
27858;DHT22;16852;51.446;6.528;2022-10-26T13:49:39;21.30;99.90
27858;DHT22;16852;51.446;6.528;2022-10-26T13:51:43;21.30;99.90
27858;DHT22;16852;51.446;6.528;2022-10-26T13:53:52;21.30;99.90
27858;DHT22;16852;51.446;6.528;2022-10-26T13:56:01;21.30;99.90
27858;DHT22;16852;51.446;6.528;2022-10-26T13:59:08;21.30;99.90
27858;DHT22;16852;51.446;6.528;2022-10-26T14:01:14;21.30;99.90
27858;DHT22;16852;51.446;6.528;2022-10-26T14:03:18;21.30;99.90
27858;DHT22;16852;51.446;6.528;2022-10-26T14:05:22;21.30;99.90
27858;DHT22;16852;51.446;6.528;2022-10-26T14:07:27;21.30;99.90
27858;DHT22;16852;51.446;6.528;2022-10-26T14:09:29;21.30;99.90
27858;DHT22;16852;51.446;6.528;2022-10-26T14:13:33;21.20;99.90
27858;DHT22;16852;51.446;6.528;2022-10-26T14:15:35;21.20;99.90
27858;DHT22;16852;51.446;6.528;2022-10-26T14:17:36;21.20;99.90
27858;DHT22;16852;51.446;6.528;2022-10-26T14:19:38;21.20;99.90
27858;DHT22;16852;51.446;6.528;2022-10-26T14:21:40;21.20;99.90
27858;DHT22;16852;51.446;6.528;2022-10-26T14:23:46;21.20;99.90
27858;DHT22;16852;51.446;6.528;2022-10-26T14:25:52;21.20;99.90
27858;DHT22;16852;51.446;6.528;2022-10-26T14:27:54;21.20;99.90
27858;DHT22;16852;51.446;6.528;2022-10-26T14:29:55;21.20;99.90
27858;DHT22;16852;51.446;6.528;2022-10-26T14:31:55;21.20;99.90
27858;DHT22;16852;51.446;6.528;2022-10-26T14:33:58;21.20;99.90
27858;DHT22;16852;51.446;6.528;2022-10-26T14:35:59;21.20;99.90
27858;DHT22;16852;51.446;6.528;2022-10-26T14:38:02;21.10;99.90
27858;DHT22;16852;51.446;6.528;2022-10-26T14:40:05;21.20;99.90
27858;DHT22;16852;51.446;6.528;2022-10-26T14:42:32;21.10;99.90
27858;DHT22;16852;51.446;6.528;2022-10-26T14:44:35;21.10;99.90
27858;DHT22;16852;51.446;6.528;2022-10-26T14:46:36;21.10;99.90
27858;DHT22;16852;51.446;6.528;2022-10-26T14:48:56;21.00;99.90
27858;DHT22;16852;51.446;6.528;2022-10-26T14:50:58;21.00;99.90